createdAt,value
2018-02-07T00:00:37.047Z,101532
2018-02-07T00:03:06.230Z,101534
2018-02-07T00:05:36.073Z,101541
2018-02-07T00:08:05.123Z,101535
2018-02-07T00:10:34.100Z,101533
2018-02-07T00:13:07.340Z,101533
2018-02-07T00:15:36.622Z,101537
2018-02-07T00:18:06.602Z,101531
2018-02-07T00:20:37.244Z,101531
2018-02-07T00:23:06.247Z,101532
2018-02-07T00:25:34.659Z,101539
2018-02-07T00:28:05.338Z,101541
2018-02-07T00:30:35.414Z,101541
2018-02-07T00:33:06.247Z,101535
2018-02-07T00:35:37.510Z,101528
2018-02-07T00:38:11.120Z,101537
2018-02-07T00:40:42.788Z,101531
2018-02-07T00:43:12.892Z,101537
2018-02-07T00:45:46.943Z,101531
2018-02-07T00:48:15.264Z,101531
2018-02-07T00:50:43.525Z,101531
2018-02-07T00:53:13.056Z,101531
2018-02-07T00:55:42.205Z,101526
2018-02-07T00:58:12.514Z,101538
2018-02-07T01:00:41.727Z,101541
2018-02-07T01:03:11.066Z,101539
2018-02-07T01:05:40.045Z,101547
2018-02-07T01:08:10.363Z,101543
2018-02-07T01:10:41.406Z,101544
2018-02-07T01:13:10.779Z,101539
2018-02-07T01:15:40.435Z,101535
2018-02-07T01:18:08.795Z,101535
2018-02-07T01:20:37.123Z,101537
2018-02-07T01:23:07.447Z,101533
2018-02-07T01:25:35.745Z,101542
2018-02-07T01:28:03.899Z,101535
2018-02-07T01:30:32.082Z,101532
2018-02-07T01:33:00.339Z,101527
2018-02-07T01:35:29.256Z,101533
2018-02-07T01:37:57.845Z,101520
2018-02-07T01:40:26.039Z,101522
2018-02-07T01:42:54.207Z,101526
2018-02-07T01:45:22.419Z,101522
2018-02-07T01:47:51.347Z,101526
2018-02-07T01:50:19.491Z,101526
2018-02-07T01:52:48.457Z,101529
2018-02-07T01:55:16.670Z,101532
2018-02-07T01:57:44.834Z,101529
2018-02-07T02:00:13.053Z,101538
2018-02-07T02:02:41.337Z,101535
2018-02-07T02:05:09.897Z,101533
2018-02-07T02:07:38.057Z,101527
2018-02-07T02:10:06.220Z,101523
2018-02-07T02:12:34.371Z,101527
2018-02-07T02:15:03.348Z,101527
2018-02-07T02:17:31.515Z,101531
2018-02-07T02:19:59.720Z,101537
2018-02-07T02:22:28.662Z,101534
2018-02-07T02:24:56.818Z,101534
2018-02-07T02:27:25.010Z,101524
2018-02-07T02:29:53.175Z,101534
2018-02-07T02:32:21.346Z,101539
2018-02-07T02:34:54.853Z,101537
2018-02-07T02:37:30.071Z,101535
2018-02-07T02:40:04.785Z,101532
2018-02-07T02:42:34.350Z,101537
2018-02-07T02:45:02.653Z,101531
2018-02-07T02:47:31.587Z,101541
2018-02-07T02:49:59.785Z,101533
2018-02-07T02:52:27.966Z,101532
2018-02-07T02:54:56.121Z,101535
2018-02-07T02:57:24.650Z,101549
2018-02-07T02:59:52.824Z,101545
2018-02-07T03:02:20.982Z,101534
2018-02-07T03:04:49.916Z,101535
2018-02-07T03:07:18.124Z,101541
2018-02-07T03:09:46.278Z,101541
2018-02-07T03:12:14.440Z,101544
2018-02-07T03:14:42.649Z,101543
2018-02-07T03:17:11.662Z,101541
2018-02-07T03:19:39.894Z,101539
2018-02-07T03:22:08.062Z,101550
2018-02-07T03:24:36.278Z,101546
2018-02-07T03:27:04.429Z,101553
2018-02-07T03:29:32.588Z,101559
2018-02-07T03:32:00.779Z,101559
2018-02-07T03:34:28.963Z,101558
2018-02-07T03:36:57.987Z,101558
2018-02-07T03:39:26.583Z,101564
2018-02-07T03:41:54.765Z,101569
2018-02-07T03:44:22.962Z,101566
2018-02-07T03:46:51.112Z,101570
2018-02-07T03:49:19.265Z,101570
2018-02-07T03:51:47.418Z,101561
2018-02-07T03:54:15.681Z,101561
2018-02-07T03:56:44.610Z,101559
2018-02-07T03:59:12.794Z,101562
2018-02-07T04:01:40.981Z,101565
2018-02-07T04:04:09.155Z,101574
2018-02-07T04:06:37.347Z,101568
2018-02-07T04:09:05.502Z,101569
2018-02-07T04:11:33.741Z,101573
2018-02-07T04:14:01.918Z,101579
2018-02-07T04:16:30.086Z,101579
2018-02-07T04:18:58.256Z,101576
2018-02-07T04:21:26.480Z,101589
2018-02-07T04:23:54.634Z,101585
2018-02-07T04:26:22.778Z,101593
2018-02-07T04:28:50.966Z,101582
2018-02-07T04:31:19.158Z,101584
2018-02-07T04:33:47.396Z,101580
2018-02-07T04:36:15.902Z,101587
2018-02-07T04:38:44.094Z,101587
2018-02-07T04:41:12.325Z,101584
2018-02-07T04:43:40.548Z,101581
2018-02-07T04:46:08.771Z,101588
2018-02-07T04:48:37.498Z,101586
2018-02-07T04:51:05.686Z,101575
2018-02-07T04:53:33.856Z,101590
2018-02-07T04:56:02.002Z,101586
2018-02-07T04:58:30.214Z,101588
2018-02-07T05:00:59.477Z,101589
2018-02-07T05:03:27.632Z,101592
2018-02-07T05:05:55.776Z,101589
2018-02-07T05:08:24.398Z,101593
2018-02-07T05:10:52.569Z,101589
2018-02-07T05:13:20.719Z,101596
2018-02-07T05:15:48.899Z,101593
2018-02-07T05:18:17.066Z,101594
2018-02-07T05:20:45.275Z,101593
2018-02-07T05:23:13.461Z,101595
2018-02-07T05:25:41.635Z,101593
2018-02-07T05:28:09.836Z,101594
2018-02-07T05:30:38.354Z,101596
2018-02-07T05:33:06.511Z,101595
2018-02-07T05:35:34.774Z,101602
2018-02-07T05:38:02.954Z,101596
2018-02-07T05:40:31.149Z,101598
2018-02-07T05:42:59.302Z,101612
2018-02-07T05:45:28.337Z,101594
2018-02-07T05:47:56.890Z,101609
2018-02-07T05:50:25.138Z,101600
2018-02-07T05:52:53.340Z,101603
2018-02-07T05:55:21.490Z,101599
2018-02-07T05:57:49.718Z,101607
2018-02-07T06:00:17.899Z,101608
2018-02-07T06:02:46.058Z,101606
2018-02-07T06:05:14.216Z,101599
2018-02-07T06:07:42.354Z,101614
2018-02-07T06:10:10.500Z,101617
2018-02-07T06:12:39.431Z,101619
2018-02-07T06:15:07.573Z,101619
2018-02-07T06:17:36.493Z,101623
2018-02-07T06:20:04.689Z,101612
2018-02-07T06:22:32.857Z,101613
2018-02-07T06:25:01.029Z,101619
2018-02-07T06:27:29.194Z,101617
2018-02-07T06:29:57.333Z,101622
2018-02-07T06:32:25.555Z,101616
2018-02-07T06:34:53.704Z,101615
2018-02-07T06:37:21.891Z,101618
2018-02-07T06:39:50.150Z,101616
2018-02-07T06:42:18.313Z,101613
2018-02-07T06:44:46.614Z,101621
2018-02-07T06:47:14.773Z,101616
2018-02-07T06:49:42.992Z,101620
2018-02-07T06:52:11.177Z,101615
2018-02-07T06:54:39.355Z,101618
2018-02-07T06:57:08.357Z,101617
2018-02-07T06:59:37.341Z,101618
2018-02-07T07:02:06.266Z,101621
2018-02-07T07:04:34.427Z,101629
2018-02-07T07:07:02.587Z,101626
2018-02-07T07:09:31.616Z,101627
2018-02-07T07:11:59.826Z,101633
2018-02-07T07:14:27.986Z,101635
2018-02-07T07:16:56.167Z,101636
2018-02-07T07:19:24.356Z,101631
2018-02-07T07:21:52.517Z,101638
2018-02-07T07:24:24.498Z,101636
2018-02-07T07:26:52.729Z,101631
2018-02-07T07:29:20.918Z,101638
2018-02-07T07:31:49.082Z,101636
2018-02-07T07:34:17.272Z,101639
2018-02-07T07:36:45.448Z,101641
2018-02-07T07:39:13.631Z,101648
2018-02-07T07:41:41.941Z,101646
2018-02-07T07:44:10.228Z,101649
2018-02-07T07:46:38.413Z,101650
2018-02-07T07:49:06.577Z,101645
2018-02-07T07:51:34.851Z,101654
2018-02-07T07:54:03.103Z,101653
2018-02-07T07:56:31.352Z,101651
2018-02-07T07:58:59.514Z,101644
2018-02-07T08:01:28.509Z,101651
2018-02-07T08:03:56.758Z,101656
2018-02-07T08:06:24.960Z,101658
2018-02-07T08:08:53.124Z,101663
2018-02-07T08:11:22.069Z,101659
2018-02-07T08:13:50.260Z,101662
2018-02-07T08:16:18.482Z,101662
2018-02-07T08:18:47.544Z,101670
2018-02-07T08:21:15.712Z,101668
2018-02-07T08:23:43.890Z,101674
2018-02-07T08:26:12.221Z,101671
2018-02-07T08:28:40.443Z,101677
2018-02-07T08:31:08.631Z,101681
2018-02-07T08:33:36.791Z,101674
2018-02-07T08:36:04.942Z,101683
2018-02-07T08:38:33.181Z,101682
2018-02-07T08:41:01.402Z,101689
2018-02-07T08:43:29.645Z,101693
2018-02-07T08:45:57.856Z,101694
2018-02-07T08:48:26.108Z,101700
2018-02-07T08:50:55.013Z,101699
2018-02-07T08:53:23.173Z,101703
2018-02-07T08:55:51.689Z,101704
2018-02-07T08:58:19.864Z,101707
2018-02-07T09:00:48.106Z,101706
2018-02-07T09:03:16.301Z,101697
2018-02-07T09:05:44.514Z,101701
2018-02-07T09:08:13.007Z,101696
2018-02-07T09:10:41.216Z,101702
2018-02-07T09:13:09.405Z,101713
2018-02-07T09:15:37.626Z,101703
2018-02-07T09:18:06.546Z,101713
2018-02-07T09:20:34.719Z,101708
2018-02-07T09:23:02.892Z,101717
2018-02-07T09:25:31.142Z,101714
2018-02-07T09:27:59.417Z,101712
2018-02-07T09:30:27.650Z,101711
2018-02-07T09:32:55.847Z,101712
2018-02-07T09:35:24.031Z,101715
2018-02-07T09:37:52.199Z,101716
2018-02-07T09:40:20.686Z,101729
2018-02-07T09:42:48.859Z,101724
2018-02-07T09:45:17.074Z,101726
2018-02-07T09:47:45.276Z,101725
2018-02-07T09:50:13.553Z,101728
2018-02-07T09:52:41.738Z,101725
2018-02-07T09:55:11.209Z,101729
2018-02-07T09:57:39.409Z,101730
2018-02-07T10:00:08.338Z,101734
2018-02-07T10:02:36.549Z,101738
2018-02-07T10:05:04.799Z,101736
2018-02-07T10:07:32.945Z,101726
2018-02-07T10:10:01.112Z,101737
2018-02-07T10:12:29.264Z,101739
2018-02-07T10:14:58.235Z,101736
2018-02-07T10:17:26.462Z,101743
2018-02-07T10:19:54.780Z,101738
2018-02-07T10:22:24.881Z,101744
2018-02-07T10:24:53.145Z,101738
2018-02-07T10:27:21.443Z,101736
2018-02-07T10:29:50.440Z,101745
2018-02-07T10:32:18.685Z,101745
2018-02-07T10:34:46.994Z,101740
2018-02-07T10:37:15.169Z,101748
2018-02-07T10:39:43.319Z,101750
2018-02-07T10:42:11.998Z,101762
2018-02-07T10:44:40.176Z,101758
2018-02-07T10:47:08.341Z,101760
2018-02-07T10:49:36.491Z,101749
2018-02-07T10:52:04.633Z,101753
2018-02-07T10:54:32.907Z,101748
2018-02-07T10:57:01.102Z,101746
2018-02-07T10:59:30.117Z,101753
2018-02-07T11:01:58.302Z,101740
2018-02-07T11:04:26.560Z,101742
2018-02-07T11:06:54.727Z,101747
2018-02-07T11:09:22.942Z,101746
2018-02-07T11:11:51.084Z,101747
2018-02-07T11:14:19.340Z,101750
2018-02-07T11:16:47.488Z,101742
2018-02-07T11:19:15.642Z,101750
2018-02-07T11:21:43.786Z,101751
2018-02-07T11:24:11.938Z,101747
2018-02-07T11:26:40.081Z,101752
2018-02-07T11:29:08.237Z,101758
2018-02-07T11:31:36.457Z,101757
2018-02-07T11:34:04.602Z,101753
2018-02-07T11:36:32.863Z,101752
2018-02-07T11:39:01.029Z,101749
2018-02-07T11:41:29.206Z,101742
2018-02-07T11:43:57.365Z,101748
2018-02-07T11:46:25.588Z,101740
2018-02-07T11:48:53.712Z,101731
2018-02-07T11:51:21.871Z,101735
2018-02-07T11:53:50.093Z,101734
2018-02-07T11:56:18.277Z,101737
2018-02-07T11:58:47.235Z,101736
2018-02-07T12:01:15.419Z,101739
2018-02-07T12:03:43.642Z,101738
2018-02-07T12:06:11.845Z,101731
2018-02-07T12:08:40.026Z,101734
2018-02-07T12:11:08.357Z,101733
2018-02-07T12:13:36.942Z,101732
2018-02-07T12:16:05.083Z,101735
2018-02-07T12:18:34.093Z,101741
2018-02-07T12:21:02.289Z,101731
2018-02-07T12:23:30.538Z,101727
2018-02-07T12:25:58.758Z,101725
2018-02-07T12:28:26.942Z,101722
2018-02-07T12:30:55.121Z,101731
2018-02-07T12:33:23.258Z,101731
2018-02-07T12:35:51.407Z,101732
2018-02-07T12:38:19.546Z,101733
2018-02-07T12:40:47.708Z,101732
2018-02-07T12:43:15.873Z,101725
2018-02-07T12:45:44.010Z,101729
2018-02-07T12:48:12.190Z,101724
2018-02-07T12:50:40.342Z,101728
2018-02-07T12:53:08.490Z,101727
2018-02-07T12:55:37.415Z,101735
2018-02-07T12:58:05.576Z,101727
2018-02-07T13:00:33.899Z,101732
2018-02-07T13:03:02.060Z,101727
2018-02-07T13:05:30.265Z,101715
2018-02-07T13:07:58.458Z,101724
2018-02-07T13:10:27.361Z,101725
2018-02-07T13:12:55.534Z,101728
2018-02-07T13:15:23.703Z,101715
2018-02-07T13:17:51.894Z,101716
2018-02-07T13:20:20.052Z,101723
2018-02-07T13:22:48.228Z,101727
2018-02-07T13:25:16.739Z,101722
2018-02-07T13:27:45.010Z,101723
2018-02-07T13:30:13.150Z,101724
2018-02-07T13:32:41.369Z,101722
2018-02-07T13:35:09.516Z,101719
2018-02-07T13:37:38.592Z,101725
2018-02-07T13:40:07.525Z,101718
2018-02-07T13:42:35.801Z,101715
2018-02-07T13:45:03.951Z,101709
2018-02-07T13:47:32.151Z,101709
2018-02-07T13:50:00.293Z,101713
2018-02-07T13:52:28.432Z,101713
2018-02-07T13:54:57.356Z,101722
2018-02-07T13:57:25.505Z,101714
2018-02-07T13:59:54.463Z,101709
2018-02-07T14:02:22.641Z,101716
2018-02-07T14:04:50.808Z,101713
2018-02-07T14:07:18.960Z,101715
2018-02-07T14:09:47.206Z,101718
2018-02-07T14:12:15.377Z,101720
2018-02-07T14:14:43.545Z,101718
2018-02-07T14:17:11.715Z,101716
2018-02-07T14:19:39.949Z,101723
2018-02-07T14:22:08.133Z,101720
2018-02-07T14:24:36.419Z,101717
2018-02-07T14:27:05.379Z,101718
2018-02-07T14:29:33.577Z,101720
2018-02-07T14:32:02.509Z,101725
2018-02-07T14:34:30.676Z,101719
2018-02-07T14:36:58.828Z,101719
2018-02-07T14:39:26.982Z,101716
2018-02-07T14:41:55.171Z,101718
2018-02-07T14:44:24.107Z,101719
2018-02-07T14:46:52.681Z,101729
2018-02-07T14:49:20.868Z,101724
2018-02-07T14:51:50.084Z,101724
2018-02-07T14:54:18.306Z,101729
2018-02-07T14:56:46.633Z,101739
2018-02-07T14:59:14.794Z,101733
2018-02-07T15:01:42.951Z,101730
2018-02-07T15:04:11.134Z,101738
2018-02-07T15:06:39.416Z,101734
2018-02-07T15:09:07.576Z,101735
2018-02-07T15:11:35.741Z,101733
2018-02-07T15:14:03.934Z,101733
2018-02-07T15:16:33.821Z,101732
2018-02-07T15:19:02.117Z,101730
2018-02-07T15:21:30.686Z,101735
2018-02-07T15:23:58.838Z,101733
2018-02-07T15:26:27.039Z,101730
2018-02-07T15:28:55.292Z,101729
2018-02-07T15:31:23.456Z,101734
2018-02-07T15:33:51.598Z,101728
2018-02-07T15:36:20.129Z,101722
2018-02-07T15:38:49.099Z,101720
2018-02-07T15:41:17.267Z,101719
2018-02-07T15:43:46.325Z,101722
2018-02-07T15:46:14.504Z,101715
2018-02-07T15:48:43.145Z,101721
2018-02-07T15:51:11.325Z,101713
2018-02-07T15:53:39.534Z,101715
2018-02-07T15:56:07.697Z,101718
2018-02-07T15:58:35.968Z,101715
2018-02-07T16:01:04.153Z,101713
2018-02-07T16:03:32.317Z,101727
2018-02-07T16:06:00.910Z,101724
2018-02-07T16:08:29.100Z,101716
2018-02-07T16:10:58.009Z,101713
2018-02-07T16:13:26.177Z,101716
2018-02-07T16:15:55.179Z,101712
2018-02-07T16:18:23.397Z,101713
2018-02-07T16:20:51.567Z,101712
2018-02-07T16:23:20.676Z,101711
2018-02-07T16:25:50.550Z,101717
2018-02-07T16:28:18.699Z,101716
2018-02-07T16:30:46.850Z,101722
2018-02-07T16:33:16.677Z,101723
2018-02-07T16:35:45.630Z,101731
2018-02-07T16:38:13.977Z,101731
2018-02-07T16:40:42.197Z,101733
2018-02-07T16:43:10.375Z,101726
2018-02-07T16:45:38.593Z,101727
2018-02-07T16:48:06.779Z,101723
2018-02-07T16:50:35.085Z,101722
2018-02-07T16:53:03.764Z,101722
2018-02-07T16:55:31.913Z,101725
2018-02-07T16:58:00.126Z,101722
2018-02-07T17:00:29.223Z,101731
2018-02-07T17:02:57.435Z,101741
2018-02-07T17:05:25.598Z,101734
2018-02-07T17:07:53.865Z,101739
2018-02-07T17:10:22.016Z,101757
2018-02-07T17:12:50.191Z,101753
2018-02-07T17:15:18.343Z,101754
2018-02-07T17:17:46.524Z,101768
2018-02-07T17:20:14.692Z,101770
2018-02-07T17:22:42.885Z,101758
2018-02-07T17:25:11.057Z,101764
2018-02-07T17:27:40.165Z,101763
2018-02-07T17:30:09.499Z,101767
2018-02-07T17:32:37.755Z,101767
2018-02-07T17:35:05.915Z,101773
2018-02-07T17:37:34.935Z,101779
2018-02-07T17:40:03.099Z,101780
2018-02-07T17:42:31.257Z,101775
2018-02-07T17:45:00.218Z,101777
2018-02-07T17:47:28.804Z,101775
2018-02-07T17:49:57.074Z,101781
2018-02-07T17:52:25.272Z,101776
2018-02-07T17:54:54.210Z,101785
2018-02-07T17:57:22.403Z,101790
2018-02-07T17:59:50.575Z,101786
2018-02-07T18:02:18.771Z,101789
2018-02-07T18:04:46.930Z,101793
2018-02-07T18:07:15.095Z,101794
2018-02-07T18:09:43.329Z,101806
2018-02-07T18:12:11.543Z,101811
2018-02-07T18:14:39.882Z,101810
2018-02-07T18:17:08.039Z,101820
2018-02-07T18:19:36.204Z,101815
2018-02-07T18:22:05.124Z,101813
2018-02-07T18:24:33.290Z,101827
2018-02-07T18:27:01.444Z,101824
2018-02-07T18:29:29.666Z,101826
2018-02-07T18:31:57.819Z,101823
2018-02-07T18:34:25.981Z,101828
2018-02-07T18:36:54.140Z,101829
2018-02-07T18:39:22.735Z,101832
2018-02-07T18:41:50.914Z,101826
2018-02-07T18:44:19.081Z,101838
2018-02-07T18:46:47.244Z,101842
2018-02-07T18:49:15.390Z,101846
2018-02-07T18:51:44.835Z,101855
2018-02-07T18:54:12.996Z,101846
2018-02-07T18:56:41.197Z,101855
2018-02-07T18:59:09.398Z,101848
2018-02-07T19:01:37.760Z,101853
2018-02-07T19:04:05.959Z,101852
2018-02-07T19:06:34.228Z,101855
2018-02-07T19:09:03.464Z,101851
2018-02-07T19:11:31.983Z,101854
2018-02-07T19:14:00.569Z,101843
2018-02-07T19:16:29.545Z,101858
2018-02-07T19:18:57.742Z,101860
2018-02-07T19:21:26.013Z,101864
2018-02-07T19:23:54.250Z,101855
2018-02-07T19:26:22.464Z,101860
2018-02-07T19:28:50.682Z,101859
2018-02-07T19:31:20.341Z,101859
2018-02-07T19:33:49.214Z,101852
2018-02-07T19:36:17.414Z,101863
2018-02-07T19:38:45.590Z,101853
2018-02-07T19:41:13.772Z,101860
2018-02-07T19:43:41.968Z,101864
2018-02-07T19:46:10.149Z,101862
2018-02-07T19:48:38.339Z,101870
2018-02-07T19:51:06.542Z,101880
2018-02-07T19:53:34.785Z,101878
2018-02-07T19:56:03.418Z,101880
2018-02-07T19:58:31.718Z,101862
2018-02-07T20:01:00.672Z,101876
2018-02-07T20:03:28.985Z,101875
2018-02-07T20:05:57.981Z,101875
2018-02-07T20:08:26.626Z,101876
2018-02-07T20:10:54.846Z,101880
2018-02-07T20:13:23.071Z,101890
2018-02-07T20:15:51.266Z,101893
2018-02-07T20:18:19.502Z,101888
2018-02-07T20:20:47.695Z,101889
2018-02-07T20:23:15.881Z,101889
2018-02-07T20:25:44.564Z,101897
2018-02-07T20:28:12.778Z,101900
2018-02-07T20:30:40.972Z,101902
2018-02-07T20:33:09.167Z,101909
2018-02-07T20:35:37.408Z,101902
2018-02-07T20:38:06.043Z,101904
2018-02-07T20:40:34.226Z,101904
2018-02-07T20:43:02.400Z,101897
2018-02-07T20:45:30.588Z,101901
2018-02-07T20:47:59.516Z,101900
2018-02-07T20:50:29.356Z,101905
2018-02-07T20:52:57.545Z,101896
2018-02-07T20:55:26.478Z,101902
2018-02-07T20:57:54.648Z,101900
2018-02-07T21:00:22.834Z,101899
2018-02-07T21:02:51.057Z,101897
2018-02-07T21:05:20.028Z,101898
2018-02-07T21:07:48.315Z,101895
2018-02-07T21:10:16.743Z,101900
2018-02-07T21:12:45.677Z,101897
2018-02-07T21:15:13.945Z,101897
2018-02-07T21:17:42.197Z,101897
2018-02-07T21:20:10.390Z,101902
2018-02-07T21:22:39.310Z,101904
2018-02-07T21:25:08.227Z,101905
2018-02-07T21:27:36.517Z,101903
2018-02-07T21:30:04.808Z,101903
2018-02-07T21:32:33.738Z,101903
2018-02-07T21:35:01.955Z,101902
2018-02-07T21:37:30.134Z,101908
2018-02-07T21:39:58.355Z,101906
2018-02-07T21:42:27.822Z,101905
2018-02-07T21:44:56.022Z,101907
2018-02-07T21:47:24.335Z,101914
2018-02-07T21:49:52.563Z,101919
2018-02-07T21:52:20.804Z,101903
2018-02-07T21:54:49.351Z,101902
2018-02-07T21:57:18.402Z,101905
2018-02-07T21:59:46.570Z,101904
2018-02-07T22:02:14.801Z,101900
2018-02-07T22:04:43.757Z,101899
2018-02-07T22:07:11.979Z,101907
2018-02-07T22:09:40.925Z,101913
2018-02-07T22:12:09.097Z,101912
2018-02-07T22:14:37.328Z,101918
2018-02-07T22:17:05.503Z,101921
2018-02-07T22:19:33.677Z,101909
2018-02-07T22:22:01.873Z,101916
2018-02-07T22:24:30.034Z,101916
2018-02-07T22:26:58.245Z,101920
2018-02-07T22:29:26.443Z,101920
2018-02-07T22:31:54.661Z,101920
2018-02-07T22:34:22.934Z,101918
2018-02-07T22:36:51.220Z,101923
2018-02-07T22:39:20.175Z,101927
2018-02-07T22:41:48.337Z,101923
2018-02-07T22:44:16.534Z,101921
2018-02-07T22:46:44.736Z,101918
2018-02-07T22:49:12.918Z,101920
2018-02-07T22:51:41.383Z,101919
2018-02-07T22:54:09.641Z,101918
2018-02-07T22:56:37.847Z,101931
2018-02-07T22:59:06.084Z,101934
2018-02-07T23:01:34.237Z,101932
2018-02-07T23:04:04.097Z,101922
2018-02-07T23:06:32.270Z,101926
2018-02-07T23:09:00.417Z,101925
2018-02-07T23:11:28.680Z,101923
2018-02-07T23:13:57.285Z,101922
2018-02-07T23:16:25.462Z,101923
2018-02-07T23:18:53.627Z,101920
2018-02-07T23:21:21.800Z,101917
2018-02-07T23:23:49.979Z,101921
2018-02-07T23:26:18.144Z,101922
2018-02-07T23:28:46.310Z,101931
2018-02-07T23:31:14.483Z,101931
2018-02-07T23:33:42.630Z,101936
2018-02-07T23:36:10.884Z,101929
2018-02-07T23:38:39.806Z,101938
2018-02-07T23:41:07.999Z,101920
2018-02-07T23:43:36.175Z,101926
2018-02-07T23:46:04.376Z,101923
2018-02-07T23:48:32.534Z,101926
2018-02-07T23:51:00.799Z,101932
2018-02-07T23:53:28.960Z,101924
2018-02-07T23:55:57.161Z,101921
2018-02-07T23:58:25.318Z,101918
